Terminal Aerodrome Forecast
Issued by NWS North Platte, NE

Home | Current Version | Previous Version | Text Only | Print | Product List | Glossary On
Versions: 1 2 3 4 5 6 7 8 9 10 11 12 13 14 15 16
000
FTUS43 KLBF 232300
TAFLBF
TAF
KLBF 232321Z 2400/2424 17010KT P6SM VCTS SCT070CB BKN120
     FM240200 VRB05KT P6SM BKN150
     FM241100 32005KT P6SM SKC=

USA.gov is the U.S. government's official web portal to all federal, state and local government web resources and services.